createdAt,value
2022-08-20T00:02:17.794Z,92.24
2022-08-20T00:04:47.074Z,91.89
2022-08-20T00:07:16.149Z,91.71
2022-08-20T00:09:46.218Z,91.61
2022-08-20T00:12:18.856Z,91.54
2022-08-20T00:14:47.718Z,92.39
2022-08-20T00:17:17.482Z,91.80
2022-08-20T00:19:47.939Z,92.10
2022-08-20T00:22:17.069Z,91.46
2022-08-20T00:24:46.429Z,91.33
2022-08-20T00:27:14.994Z,91.09
2022-08-20T00:29:46.091Z,91.21
2022-08-20T00:32:14.616Z,91.63
2022-08-20T00:34:43.199Z,91.39
2022-08-20T00:37:11.872Z,91.32
2022-08-20T00:39:40.389Z,91.18
2022-08-20T00:42:09.445Z,91.49
2022-08-20T00:44:44.732Z,91.93
2022-08-20T00:47:13.490Z,91.80
2022-08-20T00:49:42.431Z,91.68
2022-08-20T00:52:16.612Z,91.71
2022-08-20T00:54:59.054Z,91.44
2022-08-20T00:57:56.772Z,91.58
2022-08-20T01:00:29.602Z,91.62
2022-08-20T01:03:00.075Z,91.08
2022-08-20T01:05:29.595Z,91.09
2022-08-20T01:07:59.337Z,91.85
2022-08-20T01:10:33.151Z,91.20
2022-08-20T01:13:04.756Z,91.08
2022-08-20T01:15:33.252Z,91.49
2022-08-20T01:18:03.177Z,91.65
2022-08-20T01:20:49.303Z,91.26
2022-08-20T01:23:48.669Z,91.12
2022-08-20T01:26:28.154Z,91.19
2022-08-20T01:29:08.639Z,90.56
2022-08-20T01:31:41.325Z,90.81
2022-08-20T01:34:14.303Z,90.37
2022-08-20T01:36:49.688Z,90.31
2022-08-20T01:39:22.827Z,90.41
2022-08-20T01:42:13.740Z,90.32
2022-08-20T01:44:47.921Z,89.74
2022-08-20T01:47:22.238Z,89.84
2022-08-20T01:50:00.370Z,89.83
2022-08-20T01:52:31.710Z,89.81
2022-08-20T01:55:00.480Z,89.84
2022-08-20T01:57:29.826Z,90.13
2022-08-20T01:59:58.389Z,89.96
2022-08-20T02:02:27.124Z,89.93
2022-08-20T02:04:56.147Z,89.63
2022-08-20T02:07:24.989Z,89.33
2022-08-20T02:09:53.855Z,89.31
2022-08-20T02:12:22.508Z,89.01
2022-08-20T02:14:54.569Z,88.82
2022-08-20T02:17:26.054Z,89.60
2022-08-20T02:20:07.056Z,89.38
2022-08-20T02:22:38.566Z,89.69
2022-08-20T02:25:10.204Z,89.50
2022-08-20T02:27:41.445Z,88.82
2022-08-20T02:30:27.523Z,89.11
2022-08-20T02:33:01.364Z,88.22
2022-08-20T02:35:33.165Z,88.24
2022-08-20T02:38:03.505Z,89.38
2022-08-20T02:40:32.888Z,88.69
2022-08-20T02:43:03.550Z,88.18
2022-08-20T02:45:40.823Z,88.32
2022-08-20T02:48:09.486Z,88.55
2022-08-20T02:50:38.184Z,88.23
2022-08-20T02:53:06.854Z,88.30
2022-08-20T02:55:35.406Z,87.89
2022-08-20T02:58:04.084Z,87.15
2022-08-20T03:00:37.901Z,87.23
2022-08-20T03:03:08.927Z,87.26
2022-08-20T03:05:41.426Z,86.87
2022-08-20T03:08:12.240Z,86.34
2022-08-20T03:10:42.980Z,86.78
2022-08-20T03:13:13.278Z,86.73
2022-08-20T03:15:49.040Z,87.15
2022-08-20T03:18:20.492Z,86.50
2022-08-20T03:20:51.316Z,86.21
2022-08-20T03:23:22.326Z,85.63
2022-08-20T03:25:51.168Z,86.11
2022-08-20T03:28:20.450Z,85.10
2022-08-20T03:30:49.007Z,84.66
2022-08-20T03:33:17.673Z,85.60
2022-08-20T03:35:46.280Z,84.54
2022-08-20T03:38:18.021Z,85.32
2022-08-20T03:40:51.160Z,85.10
2022-08-20T03:43:20.166Z,84.34
2022-08-20T03:45:48.997Z,84.55
2022-08-20T03:48:20.524Z,84.17
2022-08-20T03:50:51.568Z,82.66
2022-08-20T03:53:20.309Z,82.82
2022-08-20T03:55:53.911Z,81.66
2022-08-20T03:58:34.757Z,81.56
2022-08-20T04:01:07.444Z,81.93
2022-08-20T04:03:42.096Z,83.03
2022-08-20T04:06:10.578Z,81.67
2022-08-20T04:08:42.583Z,82.21
2022-08-20T04:11:11.136Z,81.12
2022-08-20T04:13:42.641Z,80.77
2022-08-20T04:16:14.736Z,80.33
2022-08-20T04:18:58.574Z,79.89
2022-08-20T04:21:33.374Z,80.08
2022-08-20T04:24:05.391Z,78.75
2022-08-20T04:26:37.145Z,78.50
2022-08-20T04:29:06.019Z,77.10
2022-08-20T04:31:35.501Z,76.54
2022-08-20T04:34:08.793Z,75.03
2022-08-20T04:36:37.408Z,76.26
2022-08-20T04:39:06.309Z,75.46
2022-08-20T04:41:35.197Z,75.91
2022-08-20T04:44:04.374Z,75.94
2022-08-20T04:46:33.417Z,74.79
2022-08-20T04:49:03.928Z,74.30
2022-08-20T04:51:34.646Z,73.97
2022-08-20T04:54:05.810Z,73.49
2022-08-20T04:56:39.864Z,72.01
2022-08-20T04:59:08.921Z,71.55
2022-08-20T05:01:37.905Z,71.52
2022-08-20T05:04:06.434Z,71.44
2022-08-20T05:06:35.158Z,72.95
2022-08-20T05:09:04.422Z,71.83
2022-08-20T05:11:36.751Z,71.39
2022-08-20T05:14:09.230Z,70.16
2022-08-20T05:16:39.751Z,70.79
2022-08-20T05:19:10.669Z,68.95
2022-08-20T05:21:39.312Z,69.37
2022-08-20T05:24:08.827Z,68.18
2022-08-20T05:26:40.035Z,67.84
2022-08-20T05:29:08.532Z,68.65
2022-08-20T05:31:38.260Z,68.48
2022-08-20T05:34:12.642Z,67.48
2022-08-20T05:36:43.846Z,67.89
2022-08-20T05:39:14.087Z,66.25
2022-08-20T05:41:42.788Z,64.77
2022-08-20T05:44:14.115Z,65.41
2022-08-20T05:46:44.989Z,65.27
2022-08-20T05:49:20.778Z,64.25
2022-08-20T05:51:51.919Z,65.73
2022-08-20T05:54:20.839Z,65.74
2022-08-20T05:56:49.282Z,64.63
2022-08-20T05:59:23.545Z,65.34
2022-08-20T06:01:53.692Z,64.61
2022-08-20T06:04:25.564Z,63.86
2022-08-20T06:07:02.401Z,64.72
2022-08-20T06:09:32.798Z,63.17
2022-08-20T06:12:03.303Z,62.52
2022-08-20T06:14:32.907Z,62.92
2022-08-20T06:17:16.890Z,60.45
2022-08-20T06:19:47.648Z,60.37
2022-08-20T06:22:18.559Z,60.21
2022-08-20T06:24:52.423Z,59.36
2022-08-20T06:27:21.745Z,60.01
2022-08-20T06:29:51.713Z,58.95
2022-08-20T06:32:31.715Z,59.31
2022-08-20T06:35:06.871Z,60.85
2022-08-20T06:37:37.387Z,59.72
2022-08-20T06:40:13.157Z,59.99
2022-08-20T06:42:48.273Z,58.09
2022-08-20T06:45:20.633Z,59.48
2022-08-20T06:47:49.265Z,58.80
2022-08-20T06:50:22.910Z,58.36
2022-08-20T06:52:53.186Z,57.78
2022-08-20T06:55:23.409Z,56.55
2022-08-20T06:58:06.475Z,55.45
2022-08-20T07:00:37.454Z,51.23
2022-08-20T07:03:06.194Z,50.89
2022-08-20T07:05:42.850Z,50.46
2022-08-20T07:08:16.116Z,50.71
2022-08-20T07:10:44.823Z,51.00
2022-08-20T07:13:15.489Z,53.76
2022-08-20T07:15:45.702Z,52.63
2022-08-20T07:18:15.052Z,53.37
2022-08-20T07:20:44.888Z,53.06
2022-08-20T07:23:13.469Z,52.91
2022-08-20T07:25:44.848Z,51.63
2022-08-20T07:28:20.575Z,53.01
2022-08-20T07:31:13.503Z,53.00
2022-08-20T07:33:44.927Z,52.96
2022-08-20T07:36:14.321Z,52.81
2022-08-20T07:38:46.604Z,51.12
2022-08-20T07:41:15.589Z,52.88
2022-08-20T07:43:48.167Z,51.49
2022-08-20T07:46:20.624Z,50.54
2022-08-20T07:48:50.876Z,51.30
2022-08-20T07:51:21.511Z,51.46
2022-08-20T07:53:52.334Z,49.17
2022-08-20T07:56:24.589Z,51.47
2022-08-20T07:58:56.964Z,49.65
2022-08-20T08:01:30.442Z,50.94
2022-08-20T08:04:00.388Z,50.47
2022-08-20T08:06:31.832Z,50.58
2022-08-20T08:09:05.456Z,51.23
2022-08-20T08:11:38.369Z,52.27
2022-08-20T08:14:10.250Z,52.35
2022-08-20T08:16:39.957Z,49.73
2022-08-20T08:19:12.649Z,51.48
2022-08-20T08:21:42.193Z,49.48
2022-08-20T08:24:15.421Z,50.73
2022-08-20T08:26:45.983Z,48.72
2022-08-20T08:29:14.479Z,49.52
2022-08-20T08:31:43.532Z,48.27
2022-08-20T08:34:12.812Z,50.16
2022-08-20T08:36:41.789Z,47.94
2022-08-20T08:39:11.256Z,48.59
2022-08-20T08:41:50.333Z,48.84
2022-08-20T08:44:27.152Z,48.43
2022-08-20T08:47:29.709Z,48.27
2022-08-20T08:50:33.414Z,45.81
2022-08-20T08:53:42.429Z,47.57
2022-08-20T08:56:16.415Z,47.74
2022-08-20T08:58:45.194Z,49.77
2022-08-20T09:01:55.499Z,49.07
2022-08-20T09:04:10.801Z,50.79
2022-08-20T09:06:41.057Z,49.46
2022-08-20T09:09:18.719Z,50.70
2022-08-20T09:11:51.737Z,50.48
2022-08-20T09:14:21.023Z,48.42
2022-08-20T09:16:52.997Z,47.81
2022-08-20T09:19:22.580Z,48.77
2022-08-20T09:21:51.217Z,49.50
2022-08-20T09:24:19.796Z,46.35
2022-08-20T09:26:48.521Z,47.30
2022-08-20T09:29:17.161Z,46.28
2022-08-20T09:31:46.313Z,45.22
2022-08-20T09:34:15.219Z,46.72
2022-08-20T09:36:43.948Z,46.37
2022-08-20T09:39:13.167Z,47.08
2022-08-20T09:41:42.259Z,47.06
2022-08-20T09:44:11.001Z,46.53
2022-08-20T09:46:39.396Z,45.92
2022-08-20T09:49:08.886Z,45.83
2022-08-20T09:51:39.489Z,46.06
2022-08-20T09:54:08.280Z,46.22
2022-08-20T09:56:37.882Z,46.10
2022-08-20T09:59:11.347Z,45.48
2022-08-20T10:01:50.584Z,45.62
2022-08-20T10:04:29.931Z,45.91
2022-08-20T10:06:58.518Z,45.07
2022-08-20T10:09:27.574Z,44.54
2022-08-20T10:11:56.287Z,44.25
2022-08-20T10:14:24.794Z,44.24
2022-08-20T10:17:01.146Z,44.78
2022-08-20T10:19:31.785Z,44.46
2022-08-20T10:22:01.091Z,44.59
2022-08-20T10:24:30.470Z,43.88
2022-08-20T10:27:01.032Z,45.18
2022-08-20T10:29:31.217Z,44.32
2022-08-20T10:32:13.185Z,45.80
2022-08-20T10:34:43.929Z,45.97
2022-08-20T10:37:23.199Z,45.24
2022-08-20T10:39:52.574Z,44.21
2022-08-20T10:42:21.290Z,43.98
2022-08-20T10:44:49.777Z,44.56
2022-08-20T10:47:21.809Z,44.77
2022-08-20T10:49:52.254Z,45.54
2022-08-20T10:52:26.284Z,45.10
2022-08-20T10:54:55.150Z,44.39
2022-08-20T10:57:27.070Z,45.00
2022-08-20T10:59:58.094Z,45.69
2022-08-20T11:02:28.367Z,46.09
2022-08-20T11:04:57.735Z,46.61
2022-08-20T11:07:50.695Z,45.61
2022-08-20T11:10:19.301Z,45.45
2022-08-20T11:12:51.783Z,45.58
2022-08-20T11:15:20.648Z,45.78
2022-08-20T11:17:49.151Z,45.90
2022-08-20T11:20:20.560Z,46.77
2022-08-20T11:22:49.231Z,46.63
2022-08-20T11:25:18.088Z,46.60
2022-08-20T11:27:49.755Z,46.85
2022-08-20T11:30:34.849Z,46.71
2022-08-20T11:33:04.669Z,46.61
2022-08-20T11:35:48.296Z,48.16
2022-08-20T11:38:18.481Z,48.47
2022-08-20T11:40:47.550Z,48.57
2022-08-20T11:43:17.982Z,49.29
2022-08-20T11:45:54.058Z,48.39
2022-08-20T11:48:31.690Z,47.91
2022-08-20T11:51:00.333Z,47.73
2022-08-20T11:53:28.992Z,48.59
2022-08-20T11:55:59.950Z,48.21
2022-08-20T11:58:28.635Z,48.16
2022-08-20T12:00:57.244Z,47.95
2022-08-20T12:03:25.798Z,48.09
2022-08-20T12:05:54.586Z,48.61
2022-08-20T12:08:25.315Z,48.85
2022-08-20T12:10:59.733Z,48.43
2022-08-20T12:13:47.545Z,48.17
2022-08-20T12:16:19.121Z,48.15
2022-08-20T12:18:48.592Z,48.07
2022-08-20T12:21:17.938Z,48.51
2022-08-20T12:23:47.452Z,48.76
2022-08-20T12:26:17.469Z,48.14
2022-08-20T12:28:46.251Z,47.91
2022-08-20T12:31:14.862Z,48.24
2022-08-20T12:33:43.496Z,48.74
2022-08-20T12:36:11.911Z,48.64
2022-08-20T12:38:40.584Z,49.27
2022-08-20T12:41:09.155Z,49.02
2022-08-20T12:43:38.133Z,48.75
2022-08-20T12:46:07.224Z,49.15
2022-08-20T12:48:35.906Z,49.33
2022-08-20T12:51:04.668Z,49.97
2022-08-20T12:53:33.328Z,49.75
2022-08-20T12:56:06.003Z,50.31
2022-08-20T12:58:35.309Z,50.37
2022-08-20T13:01:04.219Z,50.60
2022-08-20T13:03:32.901Z,50.60
2022-08-20T13:06:09.615Z,50.64
2022-08-20T13:08:38.161Z,50.78
2022-08-20T13:11:07.113Z,51.48
2022-08-20T13:13:38.423Z,51.36
2022-08-20T13:16:07.364Z,51.41
2022-08-20T13:18:35.909Z,51.36
2022-08-20T13:21:04.642Z,51.81
2022-08-20T13:23:33.204Z,52.21
2022-08-20T13:26:01.947Z,52.25
2022-08-20T13:28:31.074Z,52.27
2022-08-20T13:30:59.810Z,51.20
2022-08-20T13:33:29.093Z,51.14
2022-08-20T13:36:00.464Z,51.83
2022-08-20T13:38:32.282Z,52.18
2022-08-20T13:41:00.730Z,51.99
2022-08-20T13:43:29.422Z,52.69
2022-08-20T13:45:57.777Z,53.10
2022-08-20T13:48:26.419Z,53.65
2022-08-20T13:50:55.029Z,53.52
2022-08-20T13:53:23.669Z,54.02
2022-08-20T13:55:52.515Z,54.44
2022-08-20T13:58:24.459Z,55.29
2022-08-20T14:00:53.133Z,54.88
2022-08-20T14:03:25.753Z,55.21
2022-08-20T14:05:54.768Z,55.94
2022-08-20T14:08:25.358Z,56.30
2022-08-20T14:10:54.077Z,56.49
2022-08-20T14:13:25.831Z,57.38
2022-08-20T14:15:55.820Z,58.04
2022-08-20T14:18:24.548Z,59.17
2022-08-20T14:20:53.059Z,59.60
2022-08-20T14:23:21.775Z,59.83
2022-08-20T14:25:51.263Z,60.67
2022-08-20T14:28:25.630Z,60.56
2022-08-20T14:30:54.417Z,61.06
2022-08-20T14:33:24.753Z,61.34
2022-08-20T14:35:53.744Z,61.88
2022-08-20T14:38:22.512Z,62.29
2022-08-20T14:40:51.388Z,62.88
2022-08-20T14:43:20.480Z,63.27
2022-08-20T14:45:49.127Z,63.41
2022-08-20T14:48:17.785Z,64.11
2022-08-20T14:50:46.278Z,63.80
2022-08-20T14:53:15.034Z,64.32
2022-08-20T14:55:43.742Z,64.74
2022-08-20T14:58:13.940Z,64.71
2022-08-20T15:00:44.347Z,64.92
2022-08-20T15:03:14.150Z,65.87
2022-08-20T15:05:43.911Z,65.96
2022-08-20T15:08:13.082Z,66.55
2022-08-20T15:10:42.017Z,66.44
2022-08-20T15:13:10.813Z,66.06
2022-08-20T15:15:41.252Z,66.71
2022-08-20T15:18:09.903Z,67.69
2022-08-20T15:20:39.096Z,67.62
2022-08-20T15:23:07.909Z,67.54
2022-08-20T15:25:38.051Z,68.30
2022-08-20T15:28:09.661Z,68.83
2022-08-20T15:30:41.134Z,68.56
2022-08-20T15:33:11.254Z,69.04
2022-08-20T15:35:40.306Z,68.48
2022-08-20T15:38:09.279Z,69.46
2022-08-20T15:40:38.321Z,68.12
2022-08-20T15:43:08.025Z,69.62
2022-08-20T15:45:38.266Z,69.80
2022-08-20T15:48:20.213Z,69.50
2022-08-20T15:50:48.712Z,70.06
2022-08-20T15:53:40.371Z,70.63
2022-08-20T15:56:24.688Z,69.78
2022-08-20T15:59:11.634Z,70.29
2022-08-20T16:02:08.492Z,71.08
2022-08-20T16:04:59.728Z,71.79
2022-08-20T16:07:46.914Z,71.80
2022-08-20T16:10:36.391Z,71.79
2022-08-20T16:13:13.317Z,72.32
2022-08-20T16:15:49.468Z,72.35
2022-08-20T16:18:23.012Z,71.86
2022-08-20T16:20:55.100Z,72.29
2022-08-20T16:23:31.849Z,72.25
2022-08-20T16:26:19.728Z,72.71
2022-08-20T16:28:53.890Z,73.56
2022-08-20T16:31:29.038Z,73.81
2022-08-20T16:34:34.345Z,73.71
2022-08-20T16:37:22.388Z,74.13
2022-08-20T16:40:16.703Z,73.05
2022-08-20T16:42:48.604Z,73.45
2022-08-20T16:45:26.813Z,73.58
2022-08-20T16:48:01.833Z,73.74
2022-08-20T16:50:35.310Z,74.21
2022-08-20T16:53:04.171Z,74.16
2022-08-20T16:55:33.097Z,74.46
2022-08-20T16:58:04.133Z,74.06
2022-08-20T17:00:44.723Z,74.79
2022-08-20T17:03:39.610Z,74.52
2022-08-20T17:06:29.234Z,75.20
2022-08-20T17:08:58.151Z,74.47
2022-08-20T17:11:34.289Z,74.39
2022-08-20T17:14:18.225Z,74.28
2022-08-20T17:16:52.837Z,74.26
2022-08-20T17:19:29.381Z,74.38
2022-08-20T17:22:12.903Z,74.07
2022-08-20T17:24:41.834Z,74.29
2022-08-20T17:27:17.597Z,75.02
2022-08-20T17:29:53.481Z,75.23
2022-08-20T17:32:34.651Z,75.60
2022-08-20T17:35:08.927Z,76.02
2022-08-20T17:37:40.791Z,75.56
2022-08-20T17:40:35.967Z,75.91
2022-08-20T17:43:07.716Z,75.87
2022-08-20T17:45:42.419Z,76.29
2022-08-20T17:48:22.685Z,75.97
2022-08-20T17:50:53.175Z,76.89
2022-08-20T17:53:32.725Z,76.66
2022-08-20T17:56:30.457Z,76.34
2022-08-20T17:59:10.927Z,76.58
2022-08-20T18:01:40.058Z,76.71
2022-08-20T18:04:09.073Z,77.15
2022-08-20T18:06:47.996Z,77.24
2022-08-20T18:09:19.426Z,77.11
2022-08-20T18:12:00.254Z,77.63
2022-08-20T18:14:43.756Z,76.94
2022-08-20T18:17:33.962Z,77.49
2022-08-20T18:20:40.868Z,77.97
2022-08-20T18:23:18.097Z,78.18
2022-08-20T18:26:06.912Z,77.58
2022-08-20T18:28:51.595Z,77.33
2022-08-20T18:31:41.195Z,77.86
2022-08-20T18:34:16.583Z,77.99
2022-08-20T18:37:05.556Z,77.26
2022-08-20T18:39:38.107Z,77.06
2022-08-20T18:42:31.037Z,77.41
2022-08-20T18:45:00.581Z,77.29
2022-08-20T18:47:35.243Z,77.60
2022-08-20T18:50:42.877Z,78.25
2022-08-20T18:53:17.559Z,78.29
2022-08-20T18:56:00.722Z,78.57
2022-08-20T18:58:37.757Z,77.72
2022-08-20T19:01:14.837Z,78.02
2022-08-20T19:03:48.950Z,77.81
2022-08-20T19:06:57.313Z,78.12
2022-08-20T19:09:47.177Z,78.60
2022-08-20T19:12:34.418Z,78.74
2022-08-20T19:15:13.270Z,78.57
2022-08-20T19:17:45.056Z,78.64
2022-08-20T19:20:23.123Z,77.87
2022-08-20T19:22:55.016Z,78.74
2022-08-20T19:25:36.476Z,78.15
2022-08-20T19:28:33.172Z,77.73
2022-08-20T19:31:17.237Z,78.22
2022-08-20T19:33:47.653Z,78.76
2022-08-20T19:36:28.458Z,78.48
2022-08-20T19:39:05.441Z,78.07
2022-08-20T19:41:50.735Z,77.80
2022-08-20T19:44:50.032Z,78.27
2022-08-20T19:47:29.935Z,78.44
2022-08-20T19:50:22.233Z,78.23
2022-08-20T19:53:17.094Z,78.81
2022-08-20T19:55:45.715Z,79.48
2022-08-20T19:58:26.698Z,79.25
2022-08-20T20:00:56.841Z,79.48
2022-08-20T20:03:27.296Z,79.25
2022-08-20T20:06:00.311Z,79.51
2022-08-20T20:08:38.518Z,79.39
2022-08-20T20:11:08.189Z,79.56
2022-08-20T20:13:37.754Z,79.86
2022-08-20T20:16:08.753Z,79.44
2022-08-20T20:18:41.496Z,80.12
2022-08-20T20:21:14.798Z,80.08
2022-08-20T20:23:54.815Z,79.85
2022-08-20T20:26:24.635Z,80.58
2022-08-20T20:29:07.966Z,80.11
2022-08-20T20:31:57.973Z,80.30
2022-08-20T20:34:32.390Z,79.77
2022-08-20T20:37:14.278Z,79.34
2022-08-20T20:40:26.035Z,80.37
2022-08-20T20:43:24.424Z,80.44
2022-08-20T20:46:01.998Z,80.91
2022-08-20T20:48:43.155Z,80.64
2022-08-20T20:51:23.645Z,80.39
2022-08-20T20:53:55.051Z,80.94
2022-08-20T20:56:30.973Z,80.33
2022-08-20T20:59:05.518Z,79.46
2022-08-20T21:01:49.001Z,79.86
2022-08-20T21:04:22.484Z,79.18
2022-08-20T21:06:54.051Z,79.50
2022-08-20T21:09:24.890Z,79.41
2022-08-20T21:11:55.957Z,79.74
2022-08-20T21:14:27.422Z,79.56
2022-08-20T21:16:59.345Z,79.44
2022-08-20T21:19:28.616Z,79.80
2022-08-20T21:22:00.522Z,78.90
2022-08-20T21:24:29.069Z,79.36
2022-08-20T21:26:59.824Z,79.26
2022-08-20T21:29:32.740Z,80.09
2022-08-20T21:32:02.938Z,79.71
2022-08-20T21:34:34.999Z,80.42
2022-08-20T21:37:03.923Z,80.56
2022-08-20T21:39:32.793Z,80.64
2022-08-20T21:42:04.438Z,80.83
2022-08-20T21:44:47.934Z,80.86
2022-08-20T21:47:18.723Z,81.47
2022-08-20T21:49:47.485Z,80.51
2022-08-20T21:52:16.202Z,80.03
2022-08-20T21:54:44.963Z,80.76
2022-08-20T21:57:22.802Z,80.38
2022-08-20T21:59:51.616Z,81.40
2022-08-20T22:02:20.548Z,80.96
2022-08-20T22:04:49.294Z,81.10
2022-08-20T22:07:23.202Z,80.63
2022-08-20T22:09:51.675Z,81.09
2022-08-20T22:12:24.890Z,80.88
2022-08-20T22:14:53.946Z,80.77
2022-08-20T22:17:23.003Z,81.37
2022-08-20T22:19:51.445Z,81.63
2022-08-20T22:22:21.954Z,81.80
2022-08-20T22:24:50.641Z,82.42
2022-08-20T22:27:19.221Z,82.74
2022-08-20T22:29:47.892Z,82.36
2022-08-20T22:32:16.444Z,83.12
2022-08-20T22:34:47.054Z,82.80
2022-08-20T22:37:16.644Z,82.74
2022-08-20T22:39:45.597Z,83.04
2022-08-20T22:42:14.356Z,83.19
2022-08-20T22:44:46.101Z,83.80
2022-08-20T22:47:15.964Z,84.21
2022-08-20T22:49:45.494Z,83.86
2022-08-20T22:52:14.346Z,83.36
2022-08-20T22:54:44.775Z,84.35
2022-08-20T22:57:15.301Z,84.06
2022-08-20T22:59:53.123Z,84.22
2022-08-20T23:02:23.014Z,84.29
2022-08-20T23:04:51.997Z,84.83
2022-08-20T23:07:20.899Z,85.09
2022-08-20T23:09:50.075Z,85.14
2022-08-20T23:12:18.953Z,84.88
2022-08-20T23:14:47.764Z,85.46
2022-08-20T23:17:19.840Z,85.03
2022-08-20T23:19:50.935Z,84.85
2022-08-20T23:22:21.092Z,84.62
2022-08-20T23:24:49.852Z,85.02
2022-08-20T23:27:21.563Z,84.55
2022-08-20T23:29:50.146Z,84.73
2022-08-20T23:32:18.864Z,84.72
2022-08-20T23:34:47.626Z,84.90
2022-08-20T23:37:19.642Z,84.95
2022-08-20T23:39:50.370Z,85.37
2022-08-20T23:42:19.966Z,85.38
2022-08-20T23:44:48.828Z,85.47
2022-08-20T23:47:22.601Z,86.20
2022-08-20T23:49:51.900Z,86.39
2022-08-20T23:52:20.844Z,86.42
2022-08-20T23:54:49.842Z,86.46
2022-08-20T23:57:20.961Z,86.37
2022-08-20T23:59:52.864Z,86.21
